createdAt,value
2024-01-05T00:00:37.848Z,5.63
2024-01-05T00:01:19.587Z,4.60
2024-01-05T00:02:01.222Z,4.00
2024-01-05T00:02:42.919Z,6.20
2024-01-05T00:03:24.833Z,4.45
2024-01-05T00:04:06.827Z,3.80
2024-01-05T00:04:48.664Z,5.18
2024-01-05T00:05:30.465Z,6.00
2024-01-05T00:06:12.597Z,5.05
2024-01-05T00:06:54.682Z,5.47
2024-01-05T00:07:36.585Z,6.10
2024-01-05T00:08:18.348Z,6.97
2024-01-05T00:09:00.203Z,6.10
2024-01-05T00:09:42.039Z,6.68
2024-01-05T00:10:23.787Z,9.18
2024-01-05T00:11:05.549Z,7.78
2024-01-05T00:11:49.517Z,8.90
2024-01-05T00:12:31.224Z,7.05
2024-01-05T00:13:12.871Z,6.18
2024-01-05T00:13:54.424Z,7.10
2024-01-05T00:14:39.138Z,5.15
2024-01-05T00:15:20.969Z,8.68
2024-01-05T00:16:08.560Z,9.40
2024-01-05T00:16:50.622Z,7.70
2024-01-05T00:17:32.370Z,6.35
2024-01-05T00:18:14.225Z,5.38
2024-01-05T00:18:56.021Z,3.10
2024-01-05T00:19:37.964Z,2.67
2024-01-05T00:20:19.764Z,3.47
2024-01-05T00:21:01.583Z,8.10
2024-01-05T00:21:43.336Z,4.80
2024-01-05T00:22:25.287Z,4.75
2024-01-05T00:23:06.882Z,6.85
2024-01-05T00:23:49.918Z,5.93
2024-01-05T00:24:31.676Z,5.75
2024-01-05T00:25:13.407Z,5.85
2024-01-05T00:25:56.191Z,4.63
2024-01-05T00:26:41.808Z,5.75
2024-01-05T00:27:23.578Z,5.13
2024-01-05T00:28:05.584Z,5.50
2024-01-05T00:28:48.759Z,6.80
2024-01-05T00:29:30.632Z,5.05
2024-01-05T00:30:12.639Z,4.75
2024-01-05T00:30:54.680Z,5.43
2024-01-05T00:31:36.689Z,6.75
2024-01-05T00:32:19.160Z,5.35
2024-01-05T00:33:01.812Z,4.45
2024-01-05T00:33:45.203Z,4.60
2024-01-05T00:34:27.000Z,5.05
2024-01-05T00:35:08.946Z,4.03
2024-01-05T00:35:50.664Z,4.22
2024-01-05T00:36:32.393Z,4.70
2024-01-05T00:37:14.062Z,4.38
2024-01-05T00:37:55.684Z,3.40
2024-01-05T00:38:37.949Z,5.60
2024-01-05T00:39:19.593Z,5.97
2024-01-05T00:40:01.227Z,4.32
2024-01-05T00:40:42.972Z,3.83
2024-01-05T00:41:24.833Z,5.50
2024-01-05T00:42:06.898Z,4.70
2024-01-05T00:42:48.509Z,4.05
2024-01-05T00:43:30.423Z,5.55
2024-01-05T00:44:12.057Z,5.63
2024-01-05T00:44:53.782Z,6.70
2024-01-05T00:45:36.168Z,5.22
2024-01-05T00:46:17.876Z,5.88
2024-01-05T00:46:59.520Z,5.15
2024-01-05T00:47:41.384Z,7.70
2024-01-05T00:48:24.537Z,5.35
2024-01-05T00:49:07.170Z,6.95
2024-01-05T00:49:49.068Z,6.38
2024-01-05T00:50:30.776Z,6.40
2024-01-05T00:51:12.469Z,6.15
2024-01-05T00:51:54.131Z,5.30
2024-01-05T00:52:35.760Z,6.60
2024-01-05T00:53:17.497Z,6.82
2024-01-05T00:53:59.206Z,6.32
2024-01-05T00:54:41.889Z,6.80
2024-01-05T00:55:25.299Z,6.18
2024-01-05T00:56:07.194Z,4.18
2024-01-05T00:56:49.020Z,7.22
2024-01-05T00:57:30.839Z,6.63
2024-01-05T00:58:12.570Z,5.95
2024-01-05T00:58:54.242Z,5.95
2024-01-05T00:59:36.203Z,4.95
2024-01-05T01:00:18.155Z,5.82
2024-01-05T01:01:00.037Z,4.43
2024-01-05T01:01:42.327Z,5.07
2024-01-05T01:02:24.254Z,6.00
2024-01-05T01:03:06.134Z,5.53
2024-01-05T01:03:48.003Z,3.97
2024-01-05T01:04:29.862Z,4.50
2024-01-05T01:05:12.218Z,4.40
2024-01-05T01:05:54.091Z,6.10
2024-01-05T01:06:35.904Z,6.13
2024-01-05T01:07:17.679Z,6.53
2024-01-05T01:07:59.449Z,6.70
2024-01-05T01:08:41.143Z,5.07
2024-01-05T01:09:22.806Z,7.57
2024-01-05T01:10:04.819Z,5.45
2024-01-05T01:10:46.473Z,7.40
2024-01-05T01:11:28.878Z,6.88
2024-01-05T01:12:10.845Z,8.93
2024-01-05T01:12:52.669Z,8.27
2024-01-05T01:13:34.298Z,8.05
2024-01-05T01:14:16.091Z,7.25
2024-01-05T01:14:57.781Z,6.70
2024-01-05T01:15:39.604Z,5.50
2024-01-05T01:16:21.292Z,6.72
2024-01-05T01:17:03.107Z,4.65
2024-01-05T01:17:45.273Z,4.38
2024-01-05T01:18:28.930Z,3.70
2024-01-05T01:19:10.816Z,4.40
2024-01-05T01:19:52.673Z,5.15
2024-01-05T01:20:34.468Z,3.78
2024-01-05T01:21:16.133Z,5.75
2024-01-05T01:21:57.819Z,4.05
2024-01-05T01:22:39.596Z,4.55
2024-01-05T01:23:21.365Z,5.18
2024-01-05T01:24:03.254Z,4.40
2024-01-05T01:24:44.943Z,5.13
2024-01-05T01:25:26.636Z,3.75
2024-01-05T01:26:08.331Z,5.53
2024-01-05T01:26:50.115Z,4.13
2024-01-05T01:27:31.988Z,3.75
2024-01-05T01:28:13.736Z,5.15
2024-01-05T01:28:55.446Z,5.32
2024-01-05T01:29:37.104Z,6.50
2024-01-05T01:30:18.887Z,4.05
2024-01-05T01:31:00.838Z,6.05
2024-01-05T01:31:42.584Z,6.05
2024-01-05T01:32:24.189Z,5.30
2024-01-05T01:33:06.022Z,4.28
2024-01-05T01:33:47.773Z,4.88
2024-01-05T01:34:29.520Z,8.05
2024-01-05T01:35:11.236Z,5.30
2024-01-05T01:35:53.117Z,7.13
2024-01-05T01:36:34.955Z,5.35
2024-01-05T01:37:16.655Z,6.22
2024-01-05T01:37:58.412Z,6.00
2024-01-05T01:38:40.094Z,5.38
2024-01-05T01:39:21.933Z,4.00
2024-01-05T01:40:06.033Z,5.13
2024-01-05T01:40:48.733Z,6.50
2024-01-05T01:41:30.327Z,5.22
2024-01-05T01:42:12.332Z,6.72
2024-01-05T01:42:54.697Z,5.93
2024-01-05T01:43:36.478Z,5.93
2024-01-05T01:44:18.665Z,5.60
2024-01-05T01:45:00.436Z,4.43
2024-01-05T01:45:42.232Z,4.30
2024-01-05T01:46:24.499Z,5.43
2024-01-05T01:47:06.518Z,4.18
2024-01-05T01:47:49.264Z,3.88
2024-01-05T01:48:31.823Z,4.18
2024-01-05T01:49:13.920Z,4.75
2024-01-05T01:49:58.456Z,5.88
2024-01-05T01:50:40.326Z,5.03
2024-01-05T01:51:22.941Z,4.47
2024-01-05T01:52:05.171Z,2.85
2024-01-05T01:52:48.538Z,4.90
2024-01-05T01:53:30.405Z,5.28
2024-01-05T01:54:12.269Z,6.93
2024-01-05T01:54:54.089Z,6.38
2024-01-05T01:55:36.301Z,7.35
2024-01-05T01:56:17.963Z,5.93
2024-01-05T01:57:00.237Z,5.40
2024-01-05T01:57:42.246Z,3.72
2024-01-05T01:58:25.569Z,4.05
2024-01-05T01:59:07.467Z,4.60
2024-01-05T01:59:49.629Z,4.78
2024-01-05T02:00:32.400Z,6.13
2024-01-05T02:01:14.575Z,6.85
2024-01-05T02:01:57.672Z,2.15
2024-01-05T02:02:39.387Z,4.07
2024-01-05T02:03:21.840Z,3.28
2024-01-05T02:04:05.109Z,4.30
2024-01-05T02:04:52.095Z,4.07
2024-01-05T02:05:33.912Z,4.25
2024-01-05T02:06:15.763Z,7.25
2024-01-05T02:06:58.045Z,4.85
2024-01-05T02:07:40.017Z,3.80
2024-01-05T02:08:22.146Z,5.25
2024-01-05T02:09:05.642Z,4.40
2024-01-05T02:09:47.383Z,5.43
2024-01-05T02:10:29.439Z,4.30
2024-01-05T02:11:11.141Z,5.97
2024-01-05T02:11:52.967Z,5.10
2024-01-05T02:12:34.741Z,5.78
2024-01-05T02:13:16.839Z,7.32
2024-01-05T02:13:58.625Z,5.32
2024-01-05T02:14:40.788Z,4.47
2024-01-05T02:15:42.396Z,6.43
2024-01-05T02:16:44.500Z,6.32
2024-01-05T02:17:46.883Z,5.18
2024-01-05T02:18:28.849Z,6.60
2024-01-05T02:19:10.843Z,6.55
2024-01-05T02:19:52.618Z,5.68
2024-01-05T02:20:34.294Z,7.03
2024-01-05T02:21:16.374Z,6.53
2024-01-05T02:22:02.075Z,6.35
2024-01-05T02:22:52.478Z,5.03
2024-01-05T02:23:34.173Z,4.40
2024-01-05T02:24:15.810Z,4.95
2024-01-05T02:25:01.554Z,4.55
2024-01-05T02:25:43.458Z,4.03
2024-01-05T02:26:25.431Z,5.32
2024-01-05T02:27:07.127Z,3.95
2024-01-05T02:27:48.793Z,5.93
2024-01-05T02:28:30.458Z,7.57
2024-01-05T02:29:12.364Z,5.13
2024-01-05T02:29:54.374Z,5.30
2024-01-05T02:30:36.646Z,3.65
2024-01-05T02:31:18.405Z,4.03
2024-01-05T02:32:00.116Z,5.00
2024-01-05T02:32:41.805Z,3.33
2024-01-05T02:33:25.229Z,5.07
2024-01-05T02:34:07.365Z,4.20
2024-01-05T02:34:49.153Z,4.75
2024-01-05T02:35:30.825Z,3.80
2024-01-05T02:36:12.555Z,7.13
2024-01-05T02:36:54.267Z,5.20
2024-01-05T02:37:36.024Z,4.20
2024-01-05T02:38:17.980Z,4.85
2024-01-05T02:38:59.654Z,2.97
2024-01-05T02:39:41.304Z,5.30
2024-01-05T02:40:22.971Z,5.25
2024-01-05T02:41:08.030Z,4.05
2024-01-05T02:41:49.798Z,5.30
2024-01-05T02:42:31.468Z,3.30
2024-01-05T02:43:14.629Z,3.83
2024-01-05T02:43:56.313Z,4.63
2024-01-05T02:44:37.933Z,4.25
2024-01-05T02:45:24.340Z,4.63
2024-01-05T02:46:06.000Z,6.55
2024-01-05T02:46:47.640Z,4.70
2024-01-05T02:47:29.330Z,4.40
2024-01-05T02:48:11.237Z,3.20
2024-01-05T02:48:53.220Z,4.78
2024-01-05T02:49:35.018Z,4.85
2024-01-05T02:50:17.110Z,5.63
2024-01-05T02:50:58.755Z,5.13
2024-01-05T02:51:41.130Z,7.40
2024-01-05T02:52:22.864Z,7.10
2024-01-05T02:53:04.627Z,6.05
2024-01-05T02:53:46.235Z,3.72
2024-01-05T02:54:29.471Z,6.38
2024-01-05T02:55:11.791Z,5.68
2024-01-05T02:55:53.509Z,5.50
2024-01-05T02:56:35.218Z,4.55
2024-01-05T02:57:16.888Z,3.83
2024-01-05T02:57:58.543Z,4.03
2024-01-05T02:58:40.155Z,7.03
2024-01-05T02:59:21.790Z,5.18
2024-01-05T03:00:04.560Z,5.63
2024-01-05T03:00:48.192Z,6.32
2024-01-05T03:01:30.011Z,4.25
2024-01-05T03:02:11.698Z,3.40
2024-01-05T03:02:53.500Z,4.30
2024-01-05T03:03:35.211Z,4.07
2024-01-05T03:04:17.009Z,5.07
2024-01-05T03:04:59.376Z,5.38
2024-01-05T03:05:43.009Z,7.75
2024-01-05T03:06:25.017Z,3.97
2024-01-05T03:07:09.114Z,5.45
2024-01-05T03:07:50.823Z,4.57
2024-01-05T03:08:32.490Z,4.75
2024-01-05T03:09:14.828Z,3.20
2024-01-05T03:09:56.459Z,5.32
2024-01-05T03:10:38.211Z,5.07
2024-01-05T03:11:20.249Z,4.53
2024-01-05T03:12:02.010Z,4.18
2024-01-05T03:12:43.725Z,3.67
2024-01-05T03:13:25.370Z,4.32
2024-01-05T03:14:07.470Z,2.63
2024-01-05T03:14:49.128Z,4.55
2024-01-05T03:15:30.777Z,2.47
2024-01-05T03:16:12.491Z,3.72
2024-01-05T03:16:54.113Z,3.00
2024-01-05T03:17:35.947Z,2.22
2024-01-05T03:18:18.017Z,2.30
2024-01-05T03:18:59.878Z,3.22
2024-01-05T03:19:41.580Z,3.92
2024-01-05T03:20:23.316Z,5.28
2024-01-05T03:21:06.450Z,5.15
2024-01-05T03:21:48.104Z,3.90
2024-01-05T03:22:31.950Z,3.78
2024-01-05T03:23:15.882Z,3.50
2024-01-05T03:23:57.796Z,3.83
2024-01-05T03:24:41.319Z,3.50
2024-01-05T03:25:23.221Z,1.73
2024-01-05T03:26:09.504Z,2.72
2024-01-05T03:26:51.286Z,5.60
2024-01-05T03:27:33.338Z,4.93
2024-01-05T03:28:15.381Z,3.13
2024-01-05T03:28:57.257Z,3.95
2024-01-05T03:29:38.947Z,4.80
2024-01-05T03:30:21.207Z,6.95
2024-01-05T03:31:03.246Z,7.38
2024-01-05T03:31:46.224Z,3.10
2024-01-05T03:32:29.043Z,3.30
2024-01-05T03:33:11.328Z,3.95
2024-01-05T03:33:53.169Z,3.00
2024-01-05T03:34:36.227Z,5.05
2024-01-05T03:35:17.949Z,2.78
2024-01-05T03:35:59.614Z,4.30
2024-01-05T03:36:42.373Z,3.25
2024-01-05T03:37:24.200Z,2.35
2024-01-05T03:38:05.996Z,3.00
2024-01-05T03:38:47.632Z,2.35
2024-01-05T03:39:29.305Z,2.20
2024-01-05T03:40:11.174Z,2.90
2024-01-05T03:40:52.826Z,3.60
2024-01-05T03:41:36.349Z,4.25
2024-01-05T03:42:19.213Z,4.32
2024-01-05T03:43:00.955Z,4.15
2024-01-05T03:43:42.605Z,3.70
2024-01-05T03:44:25.870Z,2.88
2024-01-05T03:45:50.790Z,3.72
2024-01-05T03:46:32.525Z,2.45
2024-01-05T03:47:14.128Z,3.50
2024-01-05T03:47:55.884Z,4.32
2024-01-05T03:48:38.189Z,4.28
2024-01-05T03:49:20.131Z,4.68
2024-01-05T03:50:01.947Z,3.40
2024-01-05T03:50:44.084Z,3.53
2024-01-05T03:51:26.892Z,4.75
2024-01-05T03:52:10.759Z,4.30
2024-01-05T03:52:53.000Z,3.75
2024-01-05T03:53:34.666Z,4.05
2024-01-05T03:54:16.526Z,2.97
2024-01-05T03:55:01.355Z,4.13
2024-01-05T03:55:43.461Z,2.58
2024-01-05T03:56:25.064Z,3.70
2024-01-05T03:57:06.970Z,3.65
2024-01-05T03:57:49.068Z,2.35
2024-01-05T03:58:30.757Z,4.93
2024-01-05T03:59:12.469Z,3.42
2024-01-05T03:59:54.258Z,3.13
2024-01-05T04:00:36.298Z,3.65
2024-01-05T04:01:20.333Z,4.47
2024-01-05T04:02:02.087Z,2.72
2024-01-05T04:02:43.822Z,3.50
2024-01-05T04:03:25.749Z,2.15
2024-01-05T04:04:08.911Z,1.95
2024-01-05T04:04:50.872Z,2.05
2024-01-05T04:05:33.236Z,4.32
2024-01-05T04:06:21.169Z,3.95
2024-01-05T04:07:04.023Z,4.25
2024-01-05T04:07:45.681Z,3.60
2024-01-05T04:08:27.662Z,3.17
2024-01-05T04:09:12.132Z,3.80
2024-01-05T04:09:53.799Z,3.90
2024-01-05T04:10:36.781Z,4.07
2024-01-05T04:11:21.339Z,2.60
2024-01-05T04:12:03.295Z,3.33
2024-01-05T04:12:45.092Z,3.55
2024-01-05T04:13:27.977Z,3.75
2024-01-05T04:14:12.309Z,2.40
2024-01-05T04:14:54.159Z,2.45
2024-01-05T04:15:40.349Z,3.38
2024-01-05T04:16:22.180Z,3.42
2024-01-05T04:17:04.900Z,3.15
2024-01-05T04:17:46.534Z,3.17
2024-01-05T04:18:28.515Z,2.88
2024-01-05T04:19:11.278Z,2.80
2024-01-05T04:19:53.122Z,3.05
2024-01-05T04:20:34.807Z,2.67
2024-01-05T04:21:16.641Z,3.83
2024-01-05T04:21:58.377Z,3.00
2024-01-05T04:22:40.146Z,4.68
2024-01-05T04:23:22.009Z,2.53
2024-01-05T04:24:04.999Z,2.08
2024-01-05T04:24:46.644Z,2.97
2024-01-05T04:25:28.311Z,3.97
2024-01-05T04:26:10.241Z,3.58
2024-01-05T04:26:52.005Z,3.80
2024-01-05T04:27:35.236Z,2.03
2024-01-05T04:28:17.273Z,3.30
2024-01-05T04:28:58.924Z,2.72
2024-01-05T04:29:40.884Z,4.05
2024-01-05T04:30:22.611Z,2.40
2024-01-05T04:31:08.644Z,3.03
2024-01-05T04:31:51.815Z,2.95
2024-01-05T04:32:35.005Z,2.65
2024-01-05T04:33:17.097Z,4.35
2024-01-05T04:33:59.258Z,4.78
2024-01-05T04:34:41.148Z,2.40
2024-01-05T04:35:23.793Z,3.22
2024-01-05T04:36:06.317Z,1.80
2024-01-05T04:36:48.729Z,3.50
2024-01-05T04:37:30.940Z,2.28
2024-01-05T04:38:12.618Z,3.13
2024-01-05T04:38:54.312Z,3.25
2024-01-05T04:39:36.064Z,1.90
2024-01-05T04:40:18.867Z,2.28
2024-01-05T04:41:00.641Z,3.13
2024-01-05T04:41:42.842Z,4.68
2024-01-05T04:42:24.878Z,3.88
2024-01-05T04:43:06.528Z,3.20
2024-01-05T04:43:48.337Z,4.80
2024-01-05T04:44:29.978Z,3.75
2024-01-05T04:45:12.884Z,4.70
2024-01-05T04:45:57.536Z,3.95
2024-01-05T04:46:39.208Z,5.00
2024-01-05T04:47:20.882Z,4.32
2024-01-05T04:48:02.692Z,3.78
2024-01-05T04:48:44.508Z,2.33
2024-01-05T04:49:27.756Z,2.63
2024-01-05T04:50:11.249Z,2.85
2024-01-05T04:50:52.931Z,3.83
2024-01-05T04:51:35.653Z,3.25
2024-01-05T04:52:18.067Z,3.78
2024-01-05T04:53:01.026Z,2.80
2024-01-05T04:53:42.784Z,3.55
2024-01-05T04:54:24.685Z,5.15
2024-01-05T04:55:06.736Z,4.72
2024-01-05T04:55:48.520Z,5.68
2024-01-05T04:56:30.695Z,4.25
2024-01-05T04:57:12.343Z,3.72
2024-01-05T04:57:53.988Z,4.20
2024-01-05T04:58:35.651Z,2.72
2024-01-05T04:59:18.764Z,3.22
2024-01-05T05:00:00.618Z,2.85
2024-01-05T05:00:42.460Z,1.75
2024-01-05T05:01:24.221Z,3.83
2024-01-05T05:02:06.210Z,3.00
2024-01-05T05:02:48.162Z,3.00
2024-01-05T05:03:32.341Z,4.10
2024-01-05T05:04:18.694Z,3.95
2024-01-05T05:05:00.552Z,2.28
2024-01-05T05:05:44.499Z,1.83
2024-01-05T05:06:27.298Z,1.42
2024-01-05T05:07:08.976Z,2.67
2024-01-05T05:07:52.011Z,4.20
2024-01-05T05:08:33.686Z,2.65
2024-01-05T05:09:15.465Z,2.85
2024-01-05T05:09:57.190Z,2.03
2024-01-05T05:10:38.796Z,3.08
2024-01-05T05:11:21.169Z,3.13
2024-01-05T05:12:02.971Z,3.92
2024-01-05T05:12:44.689Z,2.63
2024-01-05T05:13:28.977Z,3.33
2024-01-05T05:14:10.644Z,3.17
2024-01-05T05:14:54.233Z,3.30
2024-01-05T05:15:37.699Z,1.90
2024-01-05T05:16:19.756Z,2.72
2024-01-05T05:17:01.393Z,3.25
2024-01-05T05:17:43.070Z,2.53
2024-01-05T05:18:24.883Z,2.83
2024-01-05T05:19:07.364Z,4.22
2024-01-05T05:19:49.141Z,2.13
2024-01-05T05:20:30.804Z,4.60
2024-01-05T05:21:12.533Z,1.98
2024-01-05T05:21:54.179Z,4.38
2024-01-05T05:22:35.982Z,4.90
2024-01-05T05:23:17.583Z,3.80
2024-01-05T05:23:59.410Z,1.55
2024-01-05T05:24:42.579Z,3.22
2024-01-05T05:25:25.178Z,1.92
2024-01-05T05:26:07.120Z,2.67
2024-01-05T05:26:49.176Z,2.03
2024-01-05T05:27:34.411Z,4.57
2024-01-05T05:28:16.149Z,1.92
2024-01-05T05:28:57.908Z,3.45
2024-01-05T05:29:39.576Z,3.17
2024-01-05T05:30:21.535Z,3.28
2024-01-05T05:31:04.099Z,3.65
2024-01-05T05:31:46.004Z,1.75
2024-01-05T05:32:27.984Z,2.90
2024-01-05T05:33:09.878Z,4.22
2024-01-05T05:33:52.514Z,3.22
2024-01-05T05:34:34.322Z,2.60
2024-01-05T05:35:16.483Z,4.10
2024-01-05T05:35:58.854Z,4.00
2024-01-05T05:36:40.572Z,3.15
2024-01-05T05:37:22.356Z,4.20
2024-01-05T05:38:04.554Z,2.45
2024-01-05T05:38:46.244Z,3.55
2024-01-05T05:39:27.882Z,3.72
2024-01-05T05:40:10.390Z,1.92
2024-01-05T05:40:52.176Z,1.70
2024-01-05T05:41:34.143Z,2.28
2024-01-05T05:42:15.876Z,3.85
2024-01-05T05:42:57.468Z,2.45
2024-01-05T05:43:39.543Z,2.92
2024-01-05T05:44:21.163Z,2.90
2024-01-05T05:45:02.937Z,3.03
2024-01-05T05:45:45.213Z,2.42
2024-01-05T05:46:27.742Z,3.45
2024-01-05T05:47:10.066Z,4.38
2024-01-05T05:47:53.147Z,3.75
2024-01-05T05:48:35.034Z,2.78
2024-01-05T05:49:17.145Z,3.20
2024-01-05T05:49:58.895Z,4.00
2024-01-05T05:50:40.573Z,2.83
2024-01-05T05:51:23.531Z,3.83
2024-01-05T05:52:06.648Z,3.85
2024-01-05T05:52:48.585Z,3.65
2024-01-05T05:53:30.199Z,3.03
2024-01-05T05:54:12.360Z,4.03
2024-01-05T05:54:54.133Z,4.28
2024-01-05T05:55:35.741Z,3.60
2024-01-05T05:56:17.358Z,3.20
2024-01-05T05:56:59.100Z,3.22
2024-01-05T05:57:41.492Z,4.72
2024-01-05T05:58:23.261Z,4.50
2024-01-05T05:59:04.885Z,2.28
2024-01-05T05:59:46.525Z,2.92
2024-01-05T06:00:28.211Z,3.28
2024-01-05T06:01:14.151Z,3.20
2024-01-05T06:01:55.785Z,3.95
2024-01-05T06:02:38.394Z,3.95
2024-01-05T06:03:20.176Z,3.97
2024-01-05T06:04:02.153Z,3.08
2024-01-05T06:04:43.998Z,4.32
2024-01-05T06:05:25.940Z,3.78
2024-01-05T06:06:24.763Z,4.80
2024-01-05T06:07:06.545Z,5.57
2024-01-05T06:07:48.205Z,4.13
2024-01-05T06:08:32.659Z,4.50
2024-01-05T06:09:16.102Z,2.13
2024-01-05T06:10:03.002Z,2.95
2024-01-05T06:10:50.180Z,5.25
2024-01-05T06:11:31.824Z,4.50
2024-01-05T06:12:14.040Z,3.60
2024-01-05T06:12:55.938Z,3.92
2024-01-05T06:13:38.536Z,3.17
2024-01-05T06:14:20.277Z,3.92
2024-01-05T06:15:02.044Z,3.72
2024-01-05T06:15:43.965Z,5.75
2024-01-05T06:16:25.829Z,2.88
2024-01-05T06:17:07.436Z,4.22
2024-01-05T06:17:49.175Z,4.32
2024-01-05T06:18:30.941Z,4.47
2024-01-05T06:19:13.296Z,3.63
2024-01-05T06:19:55.098Z,4.22
2024-01-05T06:20:36.798Z,3.35
2024-01-05T06:21:18.479Z,4.03
2024-01-05T06:22:01.392Z,3.10
2024-01-05T06:22:44.396Z,2.63
2024-01-05T06:23:26.029Z,2.58
2024-01-05T06:24:07.717Z,4.20
2024-01-05T06:24:49.399Z,4.85
2024-01-05T06:25:31.029Z,4.43
2024-01-05T06:26:13.742Z,4.05
2024-01-05T06:26:55.383Z,5.15
2024-01-05T06:27:39.344Z,3.85
2024-01-05T06:28:22.071Z,2.78
2024-01-05T06:29:04.965Z,2.53
2024-01-05T06:29:46.651Z,4.43
2024-01-05T06:30:28.429Z,5.97
2024-01-05T06:31:10.260Z,4.18
2024-01-05T06:31:52.953Z,6.72
2024-01-05T06:32:34.616Z,9.77
2024-01-05T06:33:16.547Z,5.53
2024-01-05T06:34:01.502Z,7.40
2024-01-05T06:34:44.733Z,4.95
2024-01-05T06:35:26.458Z,3.65
2024-01-05T06:36:08.137Z,4.25
2024-01-05T06:36:49.843Z,6.47
2024-01-05T06:37:31.516Z,3.63
2024-01-05T06:38:14.313Z,5.55
2024-01-05T06:38:57.049Z,6.72
2024-01-05T06:39:39.044Z,11.40
2024-01-05T06:40:21.711Z,9.77
2024-01-05T06:41:03.460Z,8.20
2024-01-05T06:41:45.480Z,21.77
2024-01-05T06:42:27.398Z,11.23
2024-01-05T06:43:10.159Z,10.88
2024-01-05T06:43:51.936Z,20.90
2024-01-05T06:44:34.022Z,12.43
2024-01-05T06:45:15.934Z,9.95
2024-01-05T06:46:06.762Z,12.43
2024-01-05T06:46:51.673Z,12.05
2024-01-05T06:47:34.121Z,12.20
2024-01-05T06:48:15.926Z,40.42
2024-01-05T06:48:58.445Z,23.27
2024-01-05T06:49:40.414Z,17.05
2024-01-05T06:50:22.380Z,17.58
2024-01-05T06:51:04.534Z,8.95
2024-01-05T06:51:47.255Z,5.15
2024-01-05T06:52:29.132Z,5.43
2024-01-05T06:53:10.770Z,4.95
2024-01-05T06:53:52.431Z,4.78
2024-01-05T06:54:35.283Z,4.32
2024-01-05T06:55:17.123Z,6.70
2024-01-05T06:55:58.865Z,9.82
2024-01-05T06:56:43.249Z,58.70
2024-01-05T06:57:25.158Z,66.97
2024-01-05T06:58:06.974Z,29.92
2024-01-05T06:58:50.768Z,35.47
2024-01-05T06:59:32.366Z,28.40
2024-01-05T07:00:14.635Z,28.25
2024-01-05T07:00:56.381Z,19.65
2024-01-05T07:01:39.115Z,25.08
2024-01-05T07:02:21.030Z,21.27
2024-01-05T07:03:03.305Z,12.63
2024-01-05T07:03:45.124Z,8.63
2024-01-05T07:04:27.090Z,12.75
2024-01-05T07:05:08.907Z,15.25
2024-01-05T07:05:50.540Z,9.48
2024-01-05T07:06:32.375Z,12.55
2024-01-05T07:07:17.999Z,11.75
2024-01-05T07:08:01.292Z,12.80
2024-01-05T07:08:45.489Z,13.95
2024-01-05T07:09:27.557Z,12.55
2024-01-05T07:10:09.687Z,16.10
2024-01-05T07:10:51.359Z,17.15
2024-01-05T07:11:32.981Z,16.73
2024-01-05T07:12:16.776Z,15.63
2024-01-05T07:13:00.310Z,9.88
2024-01-05T07:13:43.189Z,10.27
2024-01-05T07:14:25.172Z,7.50
2024-01-05T07:15:07.473Z,8.35
2024-01-05T07:15:56.300Z,7.20
2024-01-05T07:16:37.949Z,8.02
2024-01-05T07:17:20.984Z,6.05
2024-01-05T07:18:02.830Z,4.22
2024-01-05T07:18:45.452Z,4.75
2024-01-05T07:19:27.407Z,4.90
2024-01-05T07:20:09.521Z,6.88
2024-01-05T07:20:51.493Z,7.85
2024-01-05T07:21:35.333Z,8.63
2024-01-05T07:22:16.973Z,9.93
2024-01-05T07:22:58.677Z,9.32
2024-01-05T07:23:40.740Z,9.65
2024-01-05T07:24:22.420Z,9.52
2024-01-05T07:25:04.510Z,7.68
2024-01-05T07:25:46.459Z,9.30
2024-01-05T07:26:28.156Z,9.23
2024-01-05T07:27:16.292Z,7.95
2024-01-05T07:27:58.073Z,8.88
2024-01-05T07:28:39.830Z,7.43
2024-01-05T07:29:21.479Z,5.25
2024-01-05T07:30:04.913Z,7.05
2024-01-05T07:31:07.155Z,4.63
2024-01-05T07:31:54.921Z,6.60
2024-01-05T07:32:38.890Z,6.10
2024-01-05T07:33:20.730Z,4.82
2024-01-05T07:34:03.732Z,5.10
2024-01-05T07:34:45.938Z,5.18
2024-01-05T07:35:29.473Z,5.60
2024-01-05T07:36:12.912Z,8.02
2024-01-05T07:36:54.806Z,6.78
2024-01-05T07:37:39.252Z,7.88
2024-01-05T07:38:21.002Z,6.50
2024-01-05T07:39:02.698Z,8.65
2024-01-05T07:39:44.383Z,6.13
2024-01-05T07:40:26.096Z,7.18
2024-01-05T07:41:07.900Z,8.85
2024-01-05T07:41:50.980Z,7.60
2024-01-05T07:42:32.689Z,8.68
2024-01-05T07:43:14.384Z,6.95
2024-01-05T07:43:56.087Z,11.32
2024-01-05T07:44:37.827Z,8.88
2024-01-05T07:45:20.082Z,6.85
2024-01-05T07:46:04.655Z,6.95
2024-01-05T07:46:48.250Z,5.97
2024-01-05T07:47:29.977Z,5.55
2024-01-05T07:48:11.790Z,6.00
2024-01-05T07:48:53.587Z,6.20
2024-01-05T07:49:35.377Z,8.70
2024-01-05T07:50:17.210Z,8.52
2024-01-05T07:50:59.186Z,6.90
2024-01-05T07:51:42.408Z,7.50
2024-01-05T07:52:24.549Z,6.18
2024-01-05T07:53:06.130Z,9.13
2024-01-05T07:53:49.753Z,6.53
2024-01-05T07:54:31.458Z,9.10
2024-01-05T07:55:13.315Z,12.60
2024-01-05T07:55:55.243Z,10.60
2024-01-05T07:56:41.494Z,9.60
2024-01-05T07:57:23.149Z,7.80
2024-01-05T07:58:04.849Z,9.32
2024-01-05T07:58:49.754Z,10.93
2024-01-05T07:59:32.932Z,9.23
2024-01-05T08:00:15.075Z,12.48
2024-01-05T08:01:02.093Z,9.52
2024-01-05T08:01:44.719Z,9.80
2024-01-05T08:02:26.541Z,8.48
2024-01-05T08:03:08.395Z,8.30
2024-01-05T08:03:50.233Z,7.30
2024-01-05T08:04:32.023Z,8.65
2024-01-05T08:05:14.054Z,6.68
2024-01-05T08:05:55.909Z,8.23
2024-01-05T08:06:37.708Z,6.53
2024-01-05T08:07:19.617Z,9.05
2024-01-05T08:08:01.325Z,8.20
2024-01-05T08:08:47.438Z,9.13
2024-01-05T08:09:30.482Z,9.43
2024-01-05T08:10:12.292Z,8.63
2024-01-05T08:10:53.956Z,10.13
2024-01-05T08:11:35.572Z,10.57
2024-01-05T08:12:18.262Z,7.82
2024-01-05T08:13:04.379Z,9.82
2024-01-05T08:13:49.976Z,10.75
2024-01-05T08:14:31.688Z,9.38
2024-01-05T08:15:13.938Z,7.90
2024-01-05T08:16:08.240Z,8.35
2024-01-05T08:16:50.266Z,8.70
2024-01-05T08:17:31.949Z,10.65
2024-01-05T08:18:13.937Z,10.48
2024-01-05T08:18:56.047Z,11.13
2024-01-05T08:19:37.855Z,10.35
2024-01-05T08:20:19.586Z,9.32
2024-01-05T08:21:01.513Z,9.27
2024-01-05T08:21:50.226Z,10.98
2024-01-05T08:22:32.753Z,8.68
2024-01-05T08:23:15.520Z,8.75
2024-01-05T08:23:57.804Z,8.25
2024-01-05T08:24:39.872Z,7.35
2024-01-05T08:25:23.451Z,7.30
2024-01-05T08:26:05.893Z,7.63
2024-01-05T08:26:47.667Z,7.82
2024-01-05T08:27:31.134Z,7.80
2024-01-05T08:28:15.309Z,8.23
2024-01-05T08:28:59.217Z,8.30
2024-01-05T08:29:41.431Z,9.40
2024-01-05T08:30:25.999Z,8.77
2024-01-05T08:31:08.589Z,7.32
2024-01-05T08:31:51.076Z,7.32
2024-01-05T08:32:32.918Z,8.85
2024-01-05T08:33:16.549Z,8.55
2024-01-05T08:33:59.467Z,7.82
2024-01-05T08:34:42.190Z,7.03
2024-01-05T08:35:23.865Z,9.05
2024-01-05T08:36:08.782Z,9.40
2024-01-05T08:36:52.006Z,9.93
2024-01-05T08:37:35.964Z,9.40
2024-01-05T08:38:19.197Z,13.07
2024-01-05T08:39:01.341Z,12.40
2024-01-05T08:39:43.892Z,8.60
2024-01-05T08:40:27.471Z,11.10
2024-01-05T08:41:11.077Z,10.10
2024-01-05T08:41:53.443Z,10.90
2024-01-05T08:42:35.760Z,9.90
2024-01-05T08:43:18.513Z,11.05
2024-01-05T08:44:00.620Z,11.20
2024-01-05T08:44:42.847Z,11.27
2024-01-05T08:45:25.005Z,12.93
2024-01-05T08:46:24.229Z,14.10
2024-01-05T08:47:06.448Z,13.85
2024-01-05T08:47:49.482Z,12.48
2024-01-05T08:48:31.278Z,12.75
2024-01-05T08:49:13.213Z,9.80
2024-01-05T08:49:55.309Z,8.63
2024-01-05T08:50:37.045Z,8.40
2024-01-05T08:51:18.818Z,8.93
2024-01-05T08:52:01.163Z,9.05
2024-01-05T08:52:42.873Z,8.27
2024-01-05T08:53:24.810Z,8.85
2024-01-05T08:54:06.633Z,9.18
2024-01-05T08:54:50.457Z,10.52
2024-01-05T08:55:34.975Z,13.63
2024-01-05T08:56:16.793Z,15.70
2024-01-05T08:57:00.039Z,16.98
2024-01-05T08:57:43.181Z,15.55
2024-01-05T08:58:24.892Z,16.00
2024-01-05T08:59:07.160Z,16.33
2024-01-05T08:59:49.649Z,11.77
2024-01-05T09:00:32.367Z,12.65
2024-01-05T09:01:18.232Z,11.15
2024-01-05T09:02:04.256Z,9.60
2024-01-05T09:02:46.113Z,8.45
2024-01-05T09:03:29.225Z,7.88
2024-01-05T09:04:11.944Z,8.35
2024-01-05T09:04:55.738Z,6.63
2024-01-05T09:05:37.697Z,7.30
2024-01-05T09:06:19.617Z,5.97
2024-01-05T09:07:01.447Z,8.40
2024-01-05T09:07:43.134Z,7.10
2024-01-05T09:08:25.069Z,8.38
2024-01-05T09:09:07.109Z,6.53
2024-01-05T09:09:48.879Z,8.70
2024-01-05T09:10:33.997Z,7.03
2024-01-05T09:11:17.305Z,6.57
2024-01-05T09:11:59.083Z,5.78
2024-01-05T09:12:41.006Z,6.57
2024-01-05T09:13:23.533Z,5.80
2024-01-05T09:14:07.993Z,5.22
2024-01-05T09:14:49.959Z,6.30
2024-01-05T09:15:31.692Z,7.32
2024-01-05T09:16:13.874Z,6.63
2024-01-05T09:16:55.650Z,5.85
2024-01-05T09:17:37.387Z,6.03
2024-01-05T09:18:19.407Z,6.85
2024-01-05T09:19:01.553Z,5.72
2024-01-05T09:19:43.992Z,6.22
2024-01-05T09:20:26.247Z,4.47
2024-01-05T09:21:08.566Z,5.75
2024-01-05T09:21:50.385Z,4.45
2024-01-05T09:22:32.106Z,4.65
2024-01-05T09:23:16.702Z,3.85
2024-01-05T09:23:58.417Z,4.13
2024-01-05T09:24:40.484Z,3.88
2024-01-05T09:25:26.033Z,5.18